Time;durP1;ratioP1;P1;durP2;ratioP2;P2;SDS_P1;SDS_P2;PMS_P1;PMS_P2;Temp;Humidity;BMP_temperature;BMP_pressure;BME280_temperature;BME280_humidity;BME280_pressure;Samples;Min_cycle;Max_cycle;Signal;HPM_P1;HPM_P2
2022/09/06 00:00:42;;;;;;;4.33;4.00;;;20.80;99.90;;;;;;4958722;28;20943;-64
2022/09/06 00:03:09;;;;;;;8.23;5.17;;;20.80;99.90;;;;;;4958862;28;20483;-64
2022/09/06 00:05:37;;;;;;;5.43;4.80;;;20.80;99.90;;;;;;4959548;28;20479;-64
2022/09/06 00:08:05;;;;;;;7.27;5.10;;;20.80;99.90;;;;;;4959749;28;20459;-64
2022/09/06 00:10:33;;;;;;;4.63;4.10;;;20.80;99.90;;;;;;4958885;28;20463;-64
2022/09/06 00:13:02;;;;;;;5.70;5.20;;;20.80;99.90;;;;;;4959588;28;20997;-64
2022/09/06 00:15:29;;;;;;;5.33;4.83;;;20.80;99.90;;;;;;4958837;28;20546;-64
2022/09/06 00:17:58;;;;;;;5.03;4.63;;;20.80;99.90;;;;;;4958674;28;20534;-64
2022/09/06 00:20:26;;;;;;;4.67;4.37;;;20.80;99.90;;;;;;4958751;28;20459;-64
2022/09/06 00:22:57;;;;;;;5.47;5.07;;;20.80;99.90;;;;;;4959198;28;20475;-64
2022/09/06 00:25:24;;;;;;;4.90;4.50;;;20.70;99.90;;;;;;4958338;28;20475;-64
2022/09/06 00:27:54;;;;;;;6.10;5.50;;;20.70;99.90;;;;;;4958714;28;20510;-64
2022/09/06 00:30:20;;;;;;;5.23;4.83;;;20.70;99.90;;;;;;4959462;28;20467;-64
2022/09/06 00:32:47;;;;;;;5.10;4.60;;;20.70;99.90;;;;;;4958652;28;20487;-64
2022/09/06 00:35:14;;;;;;;5.53;5.13;;;20.60;99.90;;;;;;4958607;28;20459;-64
2022/09/06 00:37:41;;;;;;;4.93;4.63;;;20.50;99.90;;;;;;4958451;28;20839;-64
2022/09/06 00:40:10;;;;;;;5.20;4.70;;;20.40;99.90;;;;;;4958267;28;20462;-64
2022/09/06 00:42:36;;;;;;;5.70;5.30;;;20.30;99.90;;;;;;4958097;28;20981;-64
2022/09/06 00:45:04;;;;;;;5.33;4.90;;;20.30;99.90;;;;;;4958273;28;20483;-64
2022/09/06 00:47:31;;;;;;;6.60;5.00;;;20.20;99.90;;;;;;4958361;28;20463;-64
2022/09/06 00:50:00;;;;;;;4.40;4.10;;;20.20;99.90;;;;;;4958286;28;20510;-64
2022/09/06 00:52:28;;;;;;;5.00;4.70;;;20.10;99.90;;;;;;4957946;28;20532;-64
2022/09/06 00:54:56;;;;;;;5.00;4.67;;;20.00;99.90;;;;;;4958115;28;20478;-64
2022/09/06 00:57:25;;;;;;;5.13;4.83;;;19.90;99.90;;;;;;4957722;28;20467;-64
2022/09/06 00:59:54;;;;;;;5.70;4.43;;;19.90;99.90;;;;;;4957989;28;20795;-64
2022/09/06 01:02:21;;;;;;;5.00;4.50;;;19.80;99.90;;;;;;4957785;28;20966;-64
2022/09/06 01:04:50;;;;;;;4.63;4.33;;;19.80;99.90;;;;;;4957429;28;20494;-64
2022/09/06 01:07:26;;;;;;;5.47;4.60;;;19.70;99.90;;;;;;4958072;28;20494;-64
2022/09/06 01:10:08;;;;;;;7.70;4.60;;;19.70;99.90;;;;;;4957823;28;20444;-64
2022/09/06 01:12:48;;;;;;;5.63;5.00;;;19.70;99.90;;;;;;4957539;28;20471;-64
2022/09/06 01:15:25;;;;;;;5.17;4.70;;;19.70;99.90;;;;;;4957847;28;20447;-64
2022/09/06 01:18:05;;;;;;;4.77;4.37;;;19.70;99.90;;;;;;4957790;28;20484;-64
2022/09/06 01:20:51;;;;;;;4.57;4.27;;;19.70;99.90;;;;;;4957744;28;20440;-64
2022/09/06 01:23:57;;;;;;;5.20;4.70;;;19.70;99.90;;;;;;4957648;28;20944;-64
2022/09/06 01:26:44;;;;;;;5.27;4.30;;;19.70;99.90;;;;;;4957625;28;20455;-64
2022/09/06 01:29:23;;;;;;;4.87;4.57;;;19.70;99.90;;;;;;4957257;28;20444;-64
2022/09/06 01:31:55;;;;;;;5.87;5.10;;;19.60;99.90;;;;;;4957679;28;20446;-64
2022/09/06 01:34:28;;;;;;;5.17;4.77;;;19.60;99.90;;;;;;4957542;28;20471;-64
2022/09/06 01:36:57;;;;;;;6.10;5.20;;;19.60;99.90;;;;;;4957223;28;20907;-64
2022/09/06 01:39:28;;;;;;;6.27;5.83;;;19.70;99.90;;;;;;4957431;28;20456;-64
2022/09/06 01:41:57;;;;;;;6.17;5.70;;;19.60;99.90;;;;;;4957848;28;20444;-64
2022/09/06 01:44:28;;;;;;;6.60;6.10;;;19.60;99.90;;;;;;4957230;28;20494;-64
2022/09/06 01:47:02;;;;;;;6.83;6.17;;;19.50;99.90;;;;;;4957525;28;20440;-64
2022/09/06 01:49:42;;;;;;;6.40;5.90;;;19.50;99.90;;;;;;4957075;28;20939;-64
2022/09/06 01:52:14;;;;;;;8.40;6.60;;;19.40;99.90;;;;;;4957235;28;20439;-64
2022/09/06 01:54:58;;;;;;;6.53;5.87;;;19.40;99.90;;;;;;4957235;28;20814;-63
2022/09/06 01:57:41;;;;;;;6.80;6.20;;;19.40;99.90;;;;;;4957108;28;20440;-64
2022/09/06 02:00:11;;;;;;;9.03;6.27;;;19.30;99.90;;;;;;4957254;28;20447;-64
2022/09/06 02:02:48;;;;;;;7.07;6.37;;;19.30;99.90;;;;;;4956507;28;20444;-63
2022/09/06 02:05:23;;;;;;;7.77;7.00;;;19.30;99.90;;;;;;4956896;28;20468;-64
2022/09/06 02:07:54;;;;;;;7.23;6.63;;;19.30;99.90;;;;;;4956900;28;20498;-63
2022/09/06 02:10:24;;;;;;;7.70;7.00;;;19.40;99.90;;;;;;4956966;28;20610;-63
2022/09/06 02:12:56;;;;;;;6.37;5.80;;;19.30;99.90;;;;;;4956752;28;20483;-64
2022/09/06 02:15:26;;;;;;;7.27;6.57;;;19.30;99.90;;;;;;4956904;28;20436;-63
2022/09/06 02:17:59;;;;;;;6.40;5.90;;;19.40;99.90;;;;;;4956900;28;20455;-63
2022/09/06 02:20:30;;;;;;;6.67;6.07;;;19.40;99.90;;;;;;4956754;28;20440;-63
2022/09/06 02:23:02;;;;;;;6.87;6.17;;;19.40;99.90;;;;;;4956485;28;20484;-63
2022/09/06 02:25:33;;;;;;;6.00;5.50;;;19.50;99.90;;;;;;4956560;28;20472;-63
2022/09/06 02:28:00;;;;;;;6.30;4.90;;;19.60;99.90;;;;;;4956338;28;20843;-63
2022/09/06 02:30:28;;;;;;;5.27;4.80;;;19.70;99.90;;;;;;4956180;28;20459;-64
2022/09/06 02:32:59;;;;;;;5.47;5.07;;;19.80;99.90;;;;;;4956487;28;20480;-64
2022/09/06 02:35:26;;;;;;;5.93;5.33;;;20.00;99.90;;;;;;4956735;28;20432;-64
2022/09/06 02:37:53;;;;;;;9.90;6.60;;;20.10;99.90;;;;;;4956177;28;20973;-64
2022/09/06 02:40:20;;;;;;;9.20;7.30;;;20.20;99.90;;;;;;4956372;28;20463;-64
2022/09/06 02:42:47;;;;;;;6.77;6.07;;;20.10;99.90;;;;;;4956377;28;20462;-63
2022/09/06 02:45:14;;;;;;;8.70;7.40;;;19.90;99.90;;;;;;4956132;28;20486;-63
2022/09/06 02:47:42;;;;;;;9.23;7.30;;;19.80;99.90;;;;;;4956188;28;20542;-63
2022/09/06 02:50:09;;;;;;;7.93;7.23;;;19.80;99.90;;;;;;4956194;28;20455;-64
2022/09/06 02:52:35;;;;;;;8.30;6.80;;;19.70;99.90;;;;;;4956147;28;20466;-62
2022/09/06 02:55:03;;;;;;;8.63;7.63;;;19.50;99.90;;;;;;4956098;28;20455;-63
2022/09/06 02:57:30;;;;;;;7.97;7.30;;;19.40;99.90;;;;;;4955921;28;20487;-63
2022/09/06 02:59:56;;;;;;;9.53;8.73;;;19.40;99.90;;;;;;4955971;28;20459;-63
2022/09/06 03:02:23;;;;;;;7.70;7.10;;;19.40;99.90;;;;;;4955911;28;20460;-63
2022/09/06 03:04:51;;;;;;;8.03;7.40;;;19.40;99.90;;;;;;4955282;28;21037;-63
2022/09/06 03:07:18;;;;;;;8.50;7.70;;;19.30;99.90;;;;;;4955901;28;20474;-63
2022/09/06 03:09:44;;;;;;;20.57;8.63;;;19.30;99.90;;;;;;4955896;28;20463;-63
2022/09/06 03:12:11;;;;;;;8.73;7.97;;;19.30;99.90;;;;;;4955675;28;20463;-63
2022/09/06 03:14:40;;;;;;;8.10;7.50;;;19.30;99.90;;;;;;4956408;28;20474;-63
2022/09/06 03:17:06;;;;;;;11.67;9.37;;;19.30;99.90;;;;;;4955924;28;20458;-63
2022/09/06 03:19:33;;;;;;;8.10;7.50;;;19.20;99.90;;;;;;4955534;28;20776;-64
2022/09/06 03:22:01;;;;;;;10.27;9.27;;;19.20;99.90;;;;;;4955936;28;20451;-64
2022/09/06 03:24:28;;;;;;;9.13;8.40;;;19.10;99.90;;;;;;4955832;28;20476;-63
2022/09/06 03:26:54;;;;;;;9.17;8.23;;;19.20;99.90;;;;;;4956468;28;20460;-63
2022/09/06 03:29:21;;;;;;;8.47;7.77;;;19.20;99.90;;;;;;4956093;28;20462;-63
2022/09/06 03:31:48;;;;;;;8.70;8.03;;;19.10;99.90;;;;;;4955692;28;20967;-63
2022/09/06 03:34:14;;;;;;;9.80;8.80;;;19.10;99.90;;;;;;4957135;28;20482;-62
2022/09/06 03:36:41;;;;;;;9.50;8.80;;;19.10;99.90;;;;;;4959853;28;20459;-63
2022/09/06 03:39:09;;;;;;;9.30;8.50;;;19.10;99.90;;;;;;4959525;28;20958;-63
2022/09/06 03:41:37;;;;;;;9.90;8.90;;;19.20;99.90;;;;;;4960067;28;20463;-63
2022/09/06 03:44:03;;;;;;;8.77;8.07;;;19.10;99.90;;;;;;4959509;28;20479;-64
2022/09/06 03:46:30;;;;;;;9.57;8.83;;;19.20;99.90;;;;;;4959358;28;20490;-63
2022/09/06 03:48:57;;;;;;;8.40;7.70;;;19.10;99.90;;;;;;4959548;28;20818;-63
2022/09/06 03:51:24;;;;;;;9.50;8.77;;;19.10;99.90;;;;;;4958999;28;20954;-63
2022/09/06 03:53:51;;;;;;;9.00;8.10;;;19.10;99.90;;;;;;4959032;28;20985;-64
2022/09/06 03:56:19;;;;;;;10.13;9.13;;;19.10;99.90;;;;;;4959214;28;20455;-63
2022/09/06 03:58:46;;;;;;;9.93;8.93;;;19.10;99.90;;;;;;4959104;28;20459;-64
2022/09/06 04:01:13;;;;;;;9.73;8.83;;;19.00;99.90;;;;;;4959229;28;20886;-64
2022/09/06 04:03:40;;;;;;;9.80;9.10;;;19.00;99.90;;;;;;4958575;28;20498;-63
2022/09/06 04:06:07;;;;;;;9.93;9.13;;;19.00;99.90;;;;;;4959327;28;20483;-64
2022/09/06 04:08:36;;;;;;;10.10;9.43;;;18.90;99.90;;;;;;4959184;28;20455;-64
2022/09/06 04:11:03;;;;;;;11.10;9.80;;;18.80;99.90;;;;;;4959350;28;20487;-65
2022/09/06 04:13:32;;;;;;;13.47;8.83;;;18.80;99.90;;;;;;4959240;28;20475;-64
2022/09/06 04:15:59;;;;;;;10.37;9.30;;;18.80;99.90;;;;;;4959329;28;20546;-64
2022/09/06 04:18:26;;;;;;;10.77;9.87;;;18.90;99.90;;;;;;4959048;28;20462;-65
2022/09/06 04:20:55;;;;;;;10.20;9.40;;;18.90;99.90;;;;;;4959101;28;20522;-64
2022/09/06 04:23:23;;;;;;;10.57;9.60;;;18.90;99.90;;;;;;4958887;28;20667;-64
2022/09/06 04:25:51;;;;;;;10.50;9.60;;;18.90;99.90;;;;;;4959109;28;20502;-65
2022/09/06 04:28:19;;;;;;;17.73;9.90;;;18.90;99.90;;;;;;4959068;28;20455;-64
2022/09/06 04:30:52;;;;;;;13.23;9.73;;;18.80;99.90;;;;;;4959110;28;20459;-65
2022/09/06 04:33:19;;;;;;;11.20;9.80;;;18.80;99.90;;;;;;4958682;28;20509;-64
2022/09/06 04:35:49;;;;;;;9.80;8.97;;;18.80;99.90;;;;;;4958756;28;20510;-65
2022/09/06 04:38:16;;;;;;;11.00;9.40;;;18.80;99.90;;;;;;4959949;28;20867;-64
2022/09/06 04:40:43;;;;;;;10.47;9.40;;;18.80;99.90;;;;;;4958581;28;20971;-64
2022/09/06 04:43:09;;;;;;;9.47;8.57;;;18.80;99.90;;;;;;4958886;28;20993;-64
2022/09/06 04:45:36;;;;;;;10.60;9.80;;;18.80;99.90;;;;;;4957235;28;20479;-64
2022/09/06 04:48:05;;;;;;;11.90;10.90;;;18.70;99.90;;;;;;4958648;28;20459;-64
2022/09/06 04:50:31;;;;;;;13.23;11.93;;;18.60;99.90;;;;;;4958234;28;20826;-64
2022/09/06 04:52:58;;;;;;;11.93;10.80;;;18.60;99.90;;;;;;4958456;28;20475;-64
2022/09/06 04:55:25;;;;;;;12.07;11.07;;;18.50;99.90;;;;;;4958339;28;20458;-64
2022/09/06 04:57:52;;;;;;;11.93;11.03;;;18.40;99.90;;;;;;4958207;28;20526;-64
2022/09/06 05:00:19;;;;;;;11.83;10.80;;;18.40;99.90;;;;;;4958171;28;20467;-64
2022/09/06 05:02:45;;;;;;;11.50;10.37;;;18.40;99.90;;;;;;4958091;28;20494;-65
2022/09/06 05:05:14;;;;;;;11.27;10.47;;;18.50;99.90;;;;;;4958571;28;20463;-64
2022/09/06 05:07:40;;;;;;;11.97;10.97;;;18.50;99.90;;;;;;4957946;28;21015;-64
2022/09/06 05:10:08;;;;;;;11.70;10.80;;;18.50;99.90;;;;;;4958173;28;20965;-64
2022/09/06 05:12:34;;;;;;;13.53;12.33;;;18.50;99.90;;;;;;4957941;28;20825;-63
2022/09/06 05:15:01;;;;;;;12.50;10.90;;;18.60;99.90;;;;;;4958079;28;20494;-64
2022/09/06 05:17:28;;;;;;;11.10;9.20;;;18.60;99.90;;;;;;4957631;28;20867;-64
2022/09/06 05:19:54;;;;;;;11.37;10.47;;;18.70;99.90;;;;;;4957972;28;20459;-64
2022/09/06 05:22:22;;;;;;;9.60;8.73;;;18.80;99.90;;;;;;4957440;28;20546;-65
2022/09/06 05:24:49;;;;;;;14.53;10.70;;;18.90;99.90;;;;;;4957676;28;20483;-65
2022/09/06 05:27:16;;;;;;;11.50;10.37;;;19.00;99.90;;;;;;4957690;28;20864;-65
2022/09/06 05:29:42;;;;;;;10.70;9.80;;;19.10;99.90;;;;;;4957817;28;20459;-64
2022/09/06 05:32:09;;;;;;;10.73;9.73;;;19.10;99.90;;;;;;4957834;28;20462;-64
2022/09/06 05:34:36;;;;;;;10.43;9.33;;;19.20;99.90;;;;;;4957310;28;20855;-63
2022/09/06 05:37:02;;;;;;;10.60;8.67;;;19.20;99.90;;;;;;4957936;28;20456;-63
2022/09/06 05:39:30;;;;;;;9.43;8.60;;;19.30;99.90;;;;;;4957408;28;20463;-63
2022/09/06 05:41:57;;;;;;;10.93;10.03;;;19.30;99.90;;;;;;4957064;28;20935;-63
2022/09/06 05:44:24;;;;;;;9.43;8.53;;;19.40;99.90;;;;;;4957131;28;20476;-63
2022/09/06 05:46:52;;;;;;;10.73;9.83;;;19.40;99.90;;;;;;4957056;28;20482;-63
2022/09/06 05:49:19;;;;;;;11.63;10.37;;;19.40;99.90;;;;;;4957281;28;20502;-62
2022/09/06 05:51:50;;;;;;;9.33;8.33;;;19.40;99.90;;;;;;4957102;28;20470;-62
2022/09/06 05:54:17;;;;;;;9.90;8.93;;;19.40;99.90;;;;;;4957173;28;20480;-62
2022/09/06 05:56:45;;;;;;;8.73;7.97;;;19.40;99.90;;;;;;4956782;28;20459;-62
2022/09/06 05:59:12;;;;;;;10.93;9.50;;;19.50;99.90;;;;;;4957995;28;20460;-63
2022/09/06 06:01:47;;;;;;;9.43;8.43;;;19.50;99.90;;;;;;4957068;28;20507;-63
2022/09/06 06:04:13;;;;;;;9.93;9.17;;;19.50;99.90;;;;;;4956739;28;20482;-63
2022/09/06 06:06:40;;;;;;;10.20;9.50;;;19.40;99.90;;;;;;4956927;28;20483;-63
2022/09/06 06:09:07;;;;;;;11.50;9.97;;;19.50;99.90;;;;;;4957104;28;20455;-63
2022/09/06 06:11:34;;;;;;;11.17;10.07;;;19.50;99.90;;;;;;4956598;28;20455;-62
2022/09/06 06:14:02;;;;;;;11.07;9.97;;;19.60;99.90;;;;;;4956735;28;20511;-62
2022/09/06 06:16:29;;;;;;;10.50;9.57;;;19.60;99.90;;;;;;4956489;28;20949;-62
2022/09/06 06:18:56;;;;;;;12.70;9.93;;;19.50;99.90;;;;;;4956680;28;20456;-62
2022/09/06 06:21:24;;;;;;;13.87;10.13;;;19.50;99.90;;;;;;4956741;28;20862;-62
2022/09/06 06:23:53;;;;;;;11.40;10.30;;;19.60;99.90;;;;;;4956350;28;20483;-61
2022/09/06 06:26:21;;;;;;;11.60;10.50;;;19.60;99.90;;;;;;4956535;28;20562;-61
2022/09/06 06:28:48;;;;;;;10.93;9.93;;;19.60;99.90;;;;;;4956606;28;20459;-62
2022/09/06 06:31:18;;;;;;;11.23;10.23;;;19.70;99.90;;;;;;4956146;28;20965;-62
2022/09/06 06:33:45;;;;;;;12.00;10.53;;;19.70;99.90;;;;;;4956052;28;20987;-62
2022/09/06 06:36:20;;;;;;;10.90;9.57;;;19.80;99.90;;;;;;4956860;28;20490;-61
2022/09/06 06:38:48;;;;;;;9.43;8.50;;;19.90;99.90;;;;;;4956790;28;20439;-61
2022/09/06 06:41:17;;;;;;;13.70;10.27;;;20.10;99.90;;;;;;4956349;28;20463;-61
2022/09/06 06:43:44;;;;;;;9.90;9.07;;;20.30;99.90;;;;;;4956220;28;20476;-62
2022/09/06 06:46:12;;;;;;;8.67;7.87;;;20.50;99.90;;;;;;4956239;28;20483;-62
2022/09/06 06:48:42;;;;;;;8.83;8.00;;;20.70;99.90;;;;;;4956246;28;20456;-63
2022/09/06 06:51:09;;;;;;;7.87;7.17;;;20.90;99.90;;;;;;4955857;28;20966;-62
2022/09/06 06:53:36;;;;;;;8.93;8.10;;;21.00;99.90;;;;;;4956117;28;20513;-64
2022/09/06 06:56:13;;;;;;;8.17;7.50;;;21.10;99.90;;;;;;4956013;28;20452;-63
2022/09/06 06:58:40;;;;;;;8.47;7.87;;;21.10;99.90;;;;;;4956087;28;20442;-63
2022/09/06 07:01:08;;;;;;;7.83;6.80;;;21.50;99.90;;;;;;4955985;28;20455;-63
2022/09/06 07:03:35;;;;;;;7.13;6.53;;;22.10;99.90;;;;;;4955561;28;20486;-63
2022/09/06 07:06:03;;;;;;;10.67;6.37;;;22.80;99.90;;;;;;4955970;28;20491;-63
2022/09/06 07:08:30;;;;;;;8.87;6.23;;;23.40;99.90;;;;;;4955356;28;20463;-63
2022/09/06 07:10:56;;;;;;;7.40;5.40;;;24.10;99.90;;;;;;4955753;28;20827;-64
2022/09/06 07:13:23;;;;;;;5.90;5.23;;;24.70;99.90;;;;;;4955867;28;20510;-63
2022/09/06 07:15:50;;;;;;;6.27;5.70;;;24.90;99.90;;;;;;4955840;28;20458;-63
2022/09/06 07:18:17;;;;;;;5.73;5.33;;;24.80;99.90;;;;;;4955792;28;20459;-63
2022/09/06 07:20:44;;;;;;;5.23;4.80;;;24.70;99.90;;;;;;4955672;28;20462;-64
2022/09/06 07:23:12;;;;;;;6.17;5.70;;;24.70;99.90;;;;;;4955438;28;20822;-64
2022/09/06 07:25:39;;;;;;;5.70;5.20;;;24.50;99.90;;;;;;4955623;28;20885;-63
2022/09/06 07:28:06;;;;;;;5.33;4.83;;;24.30;99.90;;;;;;4955679;28;20456;-63
2022/09/06 07:30:35;;;;;;;5.53;5.13;;;24.50;99.90;;;;;;4955985;28;20456;-63
2022/09/06 07:33:04;;;;;;;5.77;5.20;;;24.60;99.90;;;;;;4955855;28;20475;-63
2022/09/06 07:35:31;;;;;;;5.73;5.23;;;24.50;99.90;;;;;;4955601;28;20947;-65
2022/09/06 07:37:59;;;;;;;6.50;5.80;;;24.30;99.90;;;;;;4955659;28;20451;-63
2022/09/06 07:40:29;;;;;;;5.43;5.13;;;24.10;99.90;;;;;;4955691;28;20861;-63
2022/09/06 07:42:56;;;;;;;6.23;5.67;;;24.00;99.90;;;;;;4955439;28;20482;-63
2022/09/06 07:45:23;;;;;;;7.43;6.33;;;24.00;99.90;;;;;;4955520;28;20455;-63
2022/09/06 07:47:54;;;;;;;5.93;4.87;;;24.30;99.90;;;;;;4955466;28;20479;-64
2022/09/06 07:50:21;;;;;;;6.90;6.20;;;24.70;99.90;;;;;;4955693;28;20531;-64
2022/09/06 07:52:48;;;;;;;6.53;5.50;;;25.30;99.90;;;;;;4955326;28;20834;-64
2022/09/06 07:55:15;;;;;;;7.33;5.07;;;26.00;99.90;;;;;;4955591;28;20874;-64
2022/09/06 07:57:43;;;;;;;5.70;5.30;;;26.60;99.90;;;;;;4955525;28;20459;-64
2022/09/06 08:00:11;;;;;;;5.90;4.80;;;27.00;99.90;;;;;;4955553;28;20456;-64
2022/09/06 08:02:39;;;;;;;10.53;5.43;;;27.30;99.90;;;;;;4955099;28;20527;-64
2022/09/06 08:05:06;;;;;;;5.83;4.93;;;27.80;99.90;;;;;;4955574;28;20442;-64
2022/09/06 08:07:33;;;;;;;4.83;4.43;;;28.10;99.90;;;;;;4955507;28;20483;-65
2022/09/06 08:10:00;;;;;;;5.33;4.83;;;28.30;99.90;;;;;;4956118;28;20464;-64
2022/09/06 08:12:28;;;;;;;7.00;5.00;;;28.80;99.90;;;;;;4955509;28;20455;-65
2022/09/06 08:14:56;;;;;;;6.03;5.47;;;29.30;99.90;;;;;;4955345;28;20519;-64
2022/09/06 08:17:22;;;;;;;5.37;4.17;;;29.70;99.90;;;;;;4955479;28;20436;-64
2022/09/06 08:19:49;;;;;;;4.90;4.60;;;30.20;99.00;;;;;;4956061;28;20462;-65
2022/09/06 08:22:16;;;;;;;5.07;4.07;;;30.50;98.60;;;;;;4958981;28;20459;-65
2022/09/06 08:24:42;;;;;;;7.60;3.53;;;31.20;97.00;;;;;;4958849;28;20545;-64
2022/09/06 08:27:10;;;;;;;6.37;4.00;;;31.80;93.90;;;;;;4958848;28;20479;-65
2022/09/06 08:29:38;;;;;;;3.97;3.53;;;32.30;92.20;;;;;;4959061;28;20514;-65
2022/09/06 08:32:06;;;;;;;4.97;3.90;;;32.70;91.80;;;;;;4958872;28;20543;-65
2022/09/06 08:34:33;;;;;;;4.40;3.70;;;33.00;90.30;;;;;;4958664;28;20482;-65
2022/09/06 08:37:00;;;;;;;4.23;3.87;;;33.40;86.20;;;;;;4958659;28;20908;-64
2022/09/06 08:39:27;;;;;;;3.80;3.50;;;33.50;84.40;;;;;;4958687;28;20462;-65
2022/09/06 08:42:00;;;;;;;3.53;3.33;;;33.70;82.80;;;;;;4958710;28;20459;-64
2022/09/06 08:44:30;;;;;;;4.80;4.30;;;33.80;81.10;;;;;;4958543;28;20479;-64
2022/09/06 08:46:59;;;;;;;5.90;3.43;;;33.90;78.10;;;;;;4958514;28;20482;-64
2022/09/06 08:49:30;;;;;;;6.07;4.00;;;34.10;78.30;;;;;;4958507;28;20466;-65
2022/09/06 08:52:10;;;;;;;6.13;4.10;;;34.20;76.20;;;;;;4958345;28;20930;-65
2022/09/06 08:54:40;;;;;;;6.37;4.30;;;34.10;76.60;;;;;;4958783;28;20487;-65
2022/09/06 08:57:15;;;;;;;4.20;3.90;;;34.10;76.60;;;;;;4958842;28;20436;-65
2022/09/06 08:59:42;;;;;;;4.50;4.10;;;33.90;74.30;;;;;;4959000;28;20898;-64
2022/09/06 09:02:15;;;;;;;4.87;4.47;;;33.70;74.50;;;;;;4958976;28;20455;-64
2022/09/06 09:04:49;;;;;;;4.70;4.20;;;33.90;76.30;;;;;;4958409;28;20479;-65
2022/09/06 09:07:39;;;;;;;5.83;4.33;;;34.10;74.30;;;;;;4959074;28;20518;-64
2022/09/06 09:10:10;;;;;;;6.40;4.20;;;33.80;74.10;;;;;;4958411;28;20451;-65
2022/09/06 09:12:42;;;;;;;5.13;4.03;;;34.10;75.20;;;;;;4957989;28;20797;-65
2022/09/06 09:15:12;;;;;;;4.80;4.00;;;34.40;74.30;;;;;;4958150;28;20436;-64
2022/09/06 09:17:39;;;;;;;5.27;4.10;;;34.90;73.00;;;;;;4957909;28;20447;-65
2022/09/06 09:20:08;;;;;;;6.33;4.60;;;35.00;71.30;;;;;;4958043;28;20462;-66
2022/09/06 09:22:35;;;;;;;4.47;4.00;;;34.90;71.00;;;;;;4957955;28;20455;-65
2022/09/06 09:25:04;;;;;;;4.90;4.30;;;34.70;71.10;;;;;;4957891;28;20478;-65
2022/09/06 09:27:32;;;;;;;4.10;3.70;;;34.50;72.20;;;;;;4957837;28;20483;-65
2022/09/06 09:30:01;;;;;;;5.17;4.00;;;34.10;71.80;;;;;;4957613;28;20943;-66
2022/09/06 09:32:32;;;;;;;4.47;3.93;;;33.50;74.40;;;;;;4956806;28;20460;-66
2022/09/06 09:35:28;;;;;;;8.50;3.90;;;33.00;76.20;;;;;;4957481;28;20616;-65
2022/09/06 09:38:04;;;;;;;4.43;4.00;;;32.40;78.00;;;;;;4957497;28;20428;-65
2022/09/06 09:40:34;;;;;;;4.63;4.20;;;32.00;78.30;;;;;;4957462;28;20439;-66
2022/09/06 09:43:26;;;;;;;5.97;4.00;;;31.90;81.30;;;;;;4957672;28;20554;-65
2022/09/06 09:46:14;;;;;;;4.87;4.47;;;31.80;80.90;;;;;;4943114;28;20468;-66
2022/09/06 09:48:43;;;;;;;4.23;3.83;;;32.00;81.90;;;;;;4957290;28;20448;-65
2022/09/06 09:51:20;;;;;;;5.37;3.77;;;32.00;80.80;;;;;;4957184;28;20459;-65
2022/09/06 09:53:52;;;;;;;5.37;4.30;;;32.20;80.60;;;;;;4957032;28;20475;-65
2022/09/06 09:56:26;;;;;;;4.73;3.70;;;32.50;79.60;;;;;;4956928;28;20482;-65
2022/09/06 09:58:56;;;;;;;12.90;4.23;;;32.90;76.80;;;;;;4957168;28;20780;-65
2022/09/06 10:01:27;;;;;;;6.53;3.63;;;33.70;76.00;;;;;;4956789;28;20851;-66
2022/09/06 10:04:01;;;;;;;3.90;3.53;;;34.20;72.80;;;;;;4956578;28;20574;-65
2022/09/06 10:06:29;;;;;;;5.00;3.37;;;34.60;72.50;;;;;;4956930;28;20443;-66
2022/09/06 10:08:56;;;;;;;5.83;3.33;;;34.70;70.60;;;;;;4956684;28;21003;-65
2022/09/06 10:11:40;;;;;;;7.67;3.43;;;34.80;67.90;;;;;;4956998;28;20451;-65
2022/09/06 10:14:11;;;;;;;6.40;3.63;;;34.90;67.30;;;;;;4956955;28;20558;-65
2022/09/06 10:16:43;;;;;;;11.37;3.83;;;34.50;66.00;;;;;;4957303;28;20506;-65
2022/09/06 10:19:22;;;;;;;5.80;3.23;;;34.90;66.00;;;;;;4957624;28;20781;-66
2022/09/06 10:21:55;;;;;;;6.30;2.50;;;35.20;69.10;;;;;;4956919;28;20615;-65
2022/09/06 10:24:30;;;;;;;4.13;2.80;;;35.50;66.50;;;;;;4957175;28;20498;-65
2022/09/06 10:27:01;;;;;;;8.67;3.47;;;36.10;68.00;;;;;;4956508;28;20462;-66
2022/09/06 10:29:39;;;;;;;5.93;4.43;;;36.70;64.10;;;;;;4956551;28;20525;-66
2022/09/06 10:32:28;;;;;;;7.20;3.20;;;37.10;63.30;;;;;;4957011;28;20443;-66
2022/09/06 10:35:19;;;;;;;7.83;3.60;;;37.30;63.30;;;;;;4956321;28;20530;-65
2022/09/06 10:37:53;;;;;;;3.97;3.50;;;36.90;60.70;;;;;;4952759;28;20451;-65
2022/09/06 10:40:30;;;;;;;5.50;3.20;;;36.70;63.30;;;;;;4956172;28;20490;-64
2022/09/06 10:43:00;;;;;;;5.43;3.67;;;36.20;60.70;;;;;;4956154;28;20479;-65
2022/09/06 10:45:33;;;;;;;7.50;3.53;;;35.80;64.90;;;;;;4955793;28;21034;-65
2022/09/06 10:48:07;;;;;;;3.93;3.20;;;35.10;63.90;;;;;;4956096;28;20479;-65
2022/09/06 10:50:42;;;;;;;6.23;3.47;;;34.50;65.80;;;;;;4956134;28;20788;-65
2022/09/06 10:53:17;;;;;;;6.40;3.80;;;34.00;66.40;;;;;;4955996;28;20518;-65
2022/09/06 10:55:49;;;;;;;5.73;3.30;;;33.50;67.40;;;;;;4956057;28;20439;-65
2022/09/06 10:58:24;;;;;;;5.50;3.60;;;33.10;69.90;;;;;;4956105;28;20620;-65
2022/09/06 11:00:53;;;;;;;4.97;3.50;;;32.60;70.50;;;;;;4955668;28;20911;-65
2022/09/06 11:03:27;;;;;;;5.60;3.60;;;32.20;73.70;;;;;;4955695;28;20486;-65
2022/09/06 11:05:59;;;;;;;5.43;3.60;;;32.00;74.20;;;;;;4956009;28;20452;-65
2022/09/06 11:08:32;;;;;;;6.33;4.10;;;31.70;75.40;;;;;;4955930;28;20467;-65
2022/09/06 11:11:05;;;;;;;4.73;3.67;;;31.60;77.60;;;;;;4955876;28;20495;-65
2022/09/06 11:13:32;;;;;;;3.90;3.53;;;31.60;78.20;;;;;;4955924;28;20471;-66
2022/09/06 11:16:06;;;;;;;4.87;3.90;;;31.50;78.10;;;;;;4956447;28;20514;-66
2022/09/06 11:18:39;;;;;;;7.83;3.97;;;31.50;75.70;;;;;;4955952;28;20868;-65
2022/09/06 11:21:35;;;;;;;7.47;3.97;;;31.30;76.50;;;;;;4956397;28;20440;-65
2022/09/06 11:24:11;;;;;;;18.43;4.63;;;31.00;78.90;;;;;;4950589;29;20486;-65
2022/09/06 11:26:44;;;;;;;3.70;3.40;;;31.10;80.40;;;;;;4955812;28;20436;-64
2022/09/06 11:29:18;;;;;;;3.57;3.27;;;31.10;78.80;;;;;;4955534;28;20967;-65
2022/09/06 11:31:56;;;;;;;5.17;3.93;;;31.10;79.70;;;;;;4956078;28;20443;-64
2022/09/06 11:34:25;;;;;;;4.23;3.67;;;31.50;78.10;;;;;;4956132;28;20502;-65
2022/09/06 11:36:55;;;;;;;8.33;3.90;;;31.70;80.20;;;;;;4956081;28;20459;-64
2022/09/06 11:39:30;;;;;;;7.07;4.60;;;31.70;77.90;;;;;;4955580;28;20915;-64
2022/09/06 11:41:57;;;;;;;3.97;3.50;;;31.70;78.30;;;;;;4955689;28;20534;-65
2022/09/06 11:44:52;;;;;;;4.23;3.80;;;31.80;78.50;;;;;;4955578;28;20482;-66
2022/09/06 11:47:36;;;;;;;11.93;3.87;;;31.80;79.00;;;;;;4955781;28;20499;-64
2022/09/06 11:50:23;;;;;;;5.87;3.80;;;31.80;77.50;;;;;;4955637;28;20448;-64
2022/09/06 11:52:56;;;;;;;7.20;3.83;;;31.70;78.70;;;;;;4955632;28;20452;-65
2022/09/06 11:55:35;;;;;;;6.20;3.90;;;31.50;77.70;;;;;;4957726;28;20436;-65
2022/09/06 11:58:05;;;;;;;5.63;3.80;;;31.60;80.00;;;;;;4959359;28;20774;-65
2022/09/06 12:00:32;;;;;;;3.93;3.40;;;31.50;78.80;;;;;;4959511;28;20499;-65
2022/09/06 12:02:59;;;;;;;4.40;3.30;;;31.60;77.80;;;;;;4959261;28;20569;-65
2022/09/06 12:05:29;;;;;;;13.13;5.33;;;31.60;80.00;;;;;;4959495;28;20585;-65
2022/09/06 12:08:34;;;;;;;8.33;4.17;;;31.60;77.90;;;;;;4959146;28;20982;-65
2022/09/06 12:11:21;;;;;;;4.73;3.73;;;31.90;77.60;;;;;;4959498;28;20575;-65
2022/09/06 12:13:54;;;;;;;3.47;3.17;;;32.20;77.50;;;;;;4959048;28;20530;-65
2022/09/06 12:16:22;;;;;;;7.30;3.63;;;32.40;74.00;;;;;;4959321;28;20448;-64
2022/09/06 12:19:00;;;;;;;3.30;3.00;;;32.30;74.40;;;;;;4958992;28;20939;-65
2022/09/06 12:21:37;;;;;;;8.03;3.37;;;31.90;73.00;;;;;;4958947;28;20510;-66
2022/09/06 12:24:05;;;;;;;5.90;3.00;;;31.60;75.40;;;;;;4958753;28;20529;-65
2022/09/06 12:26:48;;;;;;;5.63;4.37;;;31.20;75.10;;;;;;4959178;28;20529;-65
2022/09/06 12:29:15;;;;;;;3.23;2.97;;;30.70;76.60;;;;;;4958908;28;20510;-65
2022/09/06 12:31:47;;;;;;;4.17;3.07;;;30.50;76.90;;;;;;4958869;28;20514;-65
2022/09/06 12:34:18;;;;;;;4.80;3.00;;;30.30;81.10;;;;;;4958750;28;20535;-65
2022/09/06 12:36:56;;;;;;;4.40;3.30;;;30.00;79.20;;;;;;4958773;28;20448;-66
2022/09/06 12:39:23;;;;;;;4.93;2.60;;;29.80;79.80;;;;;;4958723;28;20435;-65
2022/09/06 12:41:55;;;;;;;3.90;2.77;;;29.70;79.80;;;;;;4958636;28;20455;-65
2022/09/06 12:44:30;;;;;;;4.40;3.00;;;29.50;80.60;;;;;;4958551;28;20479;-65
2022/09/06 12:47:01;;;;;;;6.13;3.23;;;29.40;80.20;;;;;;4958675;28;20439;-65
2022/09/06 12:49:28;;;;;;;4.30;3.70;;;29.30;80.40;;;;;;4958571;28;20463;-65
2022/09/06 12:52:06;;;;;;;4.00;3.20;;;29.20;82.80;;;;;;4958380;28;20459;-65
2022/09/06 12:54:33;;;;;;;4.17;3.30;;;29.10;82.40;;;;;;4958984;28;20982;-65
2022/09/06 12:57:14;;;;;;;3.00;2.80;;;29.00;85.10;;;;;;4958278;28;20546;-65
2022/09/06 12:59:48;;;;;;;6.10;3.60;;;28.90;87.60;;;;;;4957959;28;20443;-65